createdAt,value
2022-08-03T00:05:19.125Z,4.93
2022-08-03T00:25:22.965Z,6.93
2022-08-03T00:45:31.338Z,5.93
2022-08-03T01:05:58.778Z,4.65
2022-08-03T01:26:18.888Z,4.43
2022-08-03T01:46:25.933Z,5.40
2022-08-03T02:07:00.578Z,5.62
2022-08-03T02:26:59.576Z,5.93
2022-08-03T02:47:07.303Z,6.47
2022-08-03T03:07:15.776Z,6.80
2022-08-03T03:27:20.972Z,6.87
2022-08-03T03:47:32.631Z,8.00
2022-08-03T04:08:05.765Z,6.37
2022-08-03T04:28:30.530Z,7.47
2022-08-03T04:48:34.541Z,7.97
2022-08-03T05:08:41.203Z,6.93
2022-08-03T05:28:51.576Z,8.40
2022-08-03T05:48:54.973Z,9.38
2022-08-03T06:08:58.412Z,8.10
2022-08-03T06:29:03.917Z,8.10
2022-08-03T06:49:07.997Z,10.93
2022-08-03T07:09:11.834Z,8.38
2022-08-03T07:29:15.680Z,9.17
2022-08-03T07:49:19.575Z,8.77
2022-08-03T08:09:23.700Z,10.55
2022-08-03T08:29:27.511Z,9.10
2022-08-03T08:49:33.045Z,9.13
2022-08-03T09:10:11.646Z,7.32
2022-08-03T09:29:59.857Z,7.55
2022-08-03T09:50:08.897Z,7.85
2022-08-03T10:10:30.838Z,8.17
2022-08-03T10:30:36.840Z,10.05
2022-08-03T10:50:42.303Z,8.20
2022-08-03T11:10:46.235Z,9.60
2022-08-03T11:30:49.698Z,7.43
2022-08-03T11:50:53.201Z,7.72
2022-08-03T12:11:00.115Z,8.00
2022-08-03T12:31:09.538Z,7.32
2022-08-03T12:51:13.135Z,6.63
2022-08-03T13:11:55.546Z,6.35
2022-08-03T13:31:51.052Z,6.97
2022-08-03T13:51:54.762Z,7.15
2022-08-03T14:12:07.975Z,6.07
2022-08-03T14:32:13.452Z,6.80
2022-08-03T14:52:17.713Z,6.80
2022-08-03T15:12:21.648Z,7.18
2022-08-03T15:32:25.060Z,8.87
2022-08-03T15:52:29.665Z,6.17
2022-08-03T16:12:33.842Z,7.32
2022-08-03T16:32:40.055Z,7.50
2022-08-03T16:52:47.240Z,7.15
2022-08-03T17:12:51.101Z,5.93
2022-08-03T17:32:57.514Z,6.00
2022-08-03T17:53:15.616Z,6.32
2022-08-03T18:13:30.809Z,7.18
2022-08-03T18:34:19.599Z,9.97
2022-08-03T18:54:59.024Z,8.13
2022-08-03T19:14:59.238Z,7.93
2022-08-03T19:35:04.886Z,9.30
2022-08-03T19:55:18.353Z,10.33
2022-08-03T20:15:31.182Z,7.37
2022-08-03T20:35:35.220Z,8.05
2022-08-03T20:55:47.799Z,7.28
2022-08-03T21:16:13.888Z,6.10
2022-08-03T21:36:18.300Z,6.00
2022-08-03T21:56:22.428Z,6.35
2022-08-03T22:16:25.778Z,8.47
2022-08-03T22:36:33.890Z,7.23
2022-08-03T22:56:38.912Z,5.68
2022-08-03T23:16:44.245Z,6.60
2022-08-03T23:36:49.296Z,5.73
2022-08-03T23:57:01.965Z,5.13
